sensor_id;sensor_type;location;lat;lon;timestamp;temperature;humidity
19168;DHT22;9716;53.114;18.040;2024-03-23T00:54:27;10.70;99.90
19168;DHT22;9716;53.114;18.040;2024-03-23T00:56:55;10.70;99.90
19168;DHT22;9716;53.114;18.040;2024-03-23T00:59:22;10.70;99.90
19168;DHT22;9716;53.114;18.040;2024-03-23T01:01:53;10.60;99.90
19168;DHT22;9716;53.114;18.040;2024-03-23T01:04:20;10.60;99.90
19168;DHT22;9716;53.114;18.040;2024-03-23T01:06:47;10.60;99.90
19168;DHT22;9716;53.114;18.040;2024-03-23T01:09:14;10.60;99.90
19168;DHT22;9716;53.114;18.040;2024-03-23T01:11:43;10.60;99.90
19168;DHT22;9716;53.114;18.040;2024-03-23T01:14:10;10.60;99.90
19168;DHT22;9716;53.114;18.040;2024-03-23T01:16:37;10.50;99.90
19168;DHT22;9716;53.114;18.040;2024-03-23T01:19:04;10.50;99.90
19168;DHT22;9716;53.114;18.040;2024-03-23T01:21:31;10.50;99.90
19168;DHT22;9716;53.114;18.040;2024-03-23T01:23:58;10.50;99.90
19168;DHT22;9716;53.114;18.040;2024-03-23T01:26:26;10.50;99.90
19168;DHT22;9716;53.114;18.040;2024-03-23T01:28:54;10.50;99.90
19168;DHT22;9716;53.114;18.040;2024-03-23T01:31:22;10.40;99.90
19168;DHT22;9716;53.114;18.040;2024-03-23T01:33:48;10.40;99.90
19168;DHT22;9716;53.114;18.040;2024-03-23T01:36:16;10.40;99.90
19168;DHT22;9716;53.114;18.040;2024-03-23T01:38:43;10.40;99.90
19168;DHT22;9716;53.114;18.040;2024-03-23T01:41:11;10.40;99.90
19168;DHT22;9716;53.114;18.040;2024-03-23T01:43:37;10.30;99.90
19168;DHT22;9716;53.114;18.040;2024-03-23T01:46:06;10.30;99.90
19168;DHT22;9716;53.114;18.040;2024-03-23T01:48:33;10.30;99.90
19168;DHT22;9716;53.114;18.040;2024-03-23T01:51:04;10.20;99.90
19168;DHT22;9716;53.114;18.040;2024-03-23T01:53:31;10.30;99.90
19168;DHT22;9716;53.114;18.040;2024-03-23T01:55:59;10.20;99.90
19168;DHT22;9716;53.114;18.040;2024-03-23T01:58:26;10.20;99.90
19168;DHT22;9716;53.114;18.040;2024-03-23T02:00:54;10.20;99.90
19168;DHT22;9716;53.114;18.040;2024-03-23T02:03:26;10.20;99.90
19168;DHT22;9716;53.114;18.040;2024-03-23T02:05:54;10.20;99.90
19168;DHT22;9716;53.114;18.040;2024-03-23T02:08:23;10.20;99.90
19168;DHT22;9716;53.114;18.040;2024-03-23T02:10:51;10.20;99.90
19168;DHT22;9716;53.114;18.040;2024-03-23T02:13:18;10.10;99.90
19168;DHT22;9716;53.114;18.040;2024-03-23T02:15:46;10.10;99.90
19168;DHT22;9716;53.114;18.040;2024-03-23T02:18:12;10.10;99.90
19168;DHT22;9716;53.114;18.040;2024-03-23T02:20:41;10.10;99.90
19168;DHT22;9716;53.114;18.040;2024-03-23T02:23:14;10.10;99.90
19168;DHT22;9716;53.114;18.040;2024-03-23T02:25:42;10.10;99.90
19168;DHT22;9716;53.114;18.040;2024-03-23T02:28:09;10.10;99.90
19168;DHT22;9716;53.114;18.040;2024-03-23T02:30:37;10.10;99.90
19168;DHT22;9716;53.114;18.040;2024-03-23T02:33:04;10.10;99.90
19168;DHT22;9716;53.114;18.040;2024-03-23T02:35:32;10.00;99.90
19168;DHT22;9716;53.114;18.040;2024-03-23T02:37:59;10.00;99.90
19168;DHT22;9716;53.114;18.040;2024-03-23T02:40:29;10.00;99.90
19168;DHT22;9716;53.114;18.040;2024-03-23T02:42:56;10.00;99.90
19168;DHT22;9716;53.114;18.040;2024-03-23T02:45:23;10.00;99.90
19168;DHT22;9716;53.114;18.040;2024-03-23T02:47:50;10.00;99.90
19168;DHT22;9716;53.114;18.040;2024-03-23T02:50:18;10.00;99.90
19168;DHT22;9716;53.114;18.040;2024-03-23T02:52:45;10.00;99.90
19168;DHT22;9716;53.114;18.040;2024-03-23T02:55:13;9.90;99.90
19168;DHT22;9716;53.114;18.040;2024-03-23T02:57:41;9.90;99.90
19168;DHT22;9716;53.114;18.040;2024-03-23T03:00:10;9.90;99.90
19168;DHT22;9716;53.114;18.040;2024-03-23T03:02:37;9.90;99.90
19168;DHT22;9716;53.114;18.040;2024-03-23T03:05:06;9.90;99.90
19168;DHT22;9716;53.114;18.040;2024-03-23T03:07:33;9.90;99.90
19168;DHT22;9716;53.114;18.040;2024-03-23T03:10:00;9.80;99.90
19168;DHT22;9716;53.114;18.040;2024-03-23T03:12:27;9.90;99.90
19168;DHT22;9716;53.114;18.040;2024-03-23T03:14:57;9.80;99.90
19168;DHT22;9716;53.114;18.040;2024-03-23T03:17:24;9.80;99.90
19168;DHT22;9716;53.114;18.040;2024-03-23T03:19:51;9.80;99.90
19168;DHT22;9716;53.114;18.040;2024-03-23T03:22:22;9.80;99.90
19168;DHT22;9716;53.114;18.040;2024-03-23T03:24:50;9.80;99.90
19168;DHT22;9716;53.114;18.040;2024-03-23T03:27:16;9.80;99.90
19168;DHT22;9716;53.114;18.040;2024-03-23T03:29:44;9.80;99.90
19168;DHT22;9716;53.114;18.040;2024-03-23T03:32:12;9.80;99.90
19168;DHT22;9716;53.114;18.040;2024-03-23T03:34:40;9.70;99.90
19168;DHT22;9716;53.114;18.040;2024-03-23T03:37:07;9.70;99.90
19168;DHT22;9716;53.114;18.040;2024-03-23T03:39:34;9.70;99.90
19168;DHT22;9716;53.114;18.040;2024-03-23T03:42:02;9.70;99.90
19168;DHT22;9716;53.114;18.040;2024-03-23T03:44:33;9.60;99.90
19168;DHT22;9716;53.114;18.040;2024-03-23T03:47:00;9.70;99.90
19168;DHT22;9716;53.114;18.040;2024-03-23T03:49:29;9.60;99.90
19168;DHT22;9716;53.114;18.040;2024-03-23T03:51:55;9.60;99.90
19168;DHT22;9716;53.114;18.040;2024-03-23T03:54:23;9.60;99.90
19168;DHT22;9716;53.114;18.040;2024-03-23T03:56:50;9.50;99.90
19168;DHT22;9716;53.114;18.040;2024-03-23T03:59:20;9.50;99.90
19168;DHT22;9716;53.114;18.040;2024-03-23T04:01:47;9.50;99.90
19168;DHT22;9716;53.114;18.040;2024-03-23T04:04:14;9.50;99.90
19168;DHT22;9716;53.114;18.040;2024-03-23T04:06:44;9.50;99.90
19168;DHT22;9716;53.114;18.040;2024-03-23T04:09:12;9.50;99.90
19168;DHT22;9716;53.114;18.040;2024-03-23T04:11:39;9.50;99.90
19168;DHT22;9716;53.114;18.040;2024-03-23T04:14:06;9.50;99.90
19168;DHT22;9716;53.114;18.040;2024-03-23T04:16:34;9.50;99.90
19168;DHT22;9716;53.114;18.040;2024-03-23T04:19:02;9.50;99.90
19168;DHT22;9716;53.114;18.040;2024-03-23T04:21:30;9.50;99.90
19168;DHT22;9716;53.114;18.040;2024-03-23T04:23:59;9.40;99.90
19168;DHT22;9716;53.114;18.040;2024-03-23T04:26:26;9.50;99.90
19168;DHT22;9716;53.114;18.040;2024-03-23T04:28:54;9.50;99.90
19168;DHT22;9716;53.114;18.040;2024-03-23T04:31:21;9.50;99.90
19168;DHT22;9716;53.114;18.040;2024-03-23T04:33:48;9.50;99.90
19168;DHT22;9716;53.114;18.040;2024-03-23T04:36:15;9.40;99.90
19168;DHT22;9716;53.114;18.040;2024-03-23T04:38:42;9.40;99.90
19168;DHT22;9716;53.114;18.040;2024-03-23T04:41:13;9.40;99.90
19168;DHT22;9716;53.114;18.040;2024-03-23T04:43:41;9.40;99.90
19168;DHT22;9716;53.114;18.040;2024-03-23T04:46:09;9.40;99.90
19168;DHT22;9716;53.114;18.040;2024-03-23T04:48:36;9.40;99.90
19168;DHT22;9716;53.114;18.040;2024-03-23T04:51:04;9.40;99.90
19168;DHT22;9716;53.114;18.040;2024-03-23T04:53:32;9.40;99.90
19168;DHT22;9716;53.114;18.040;2024-03-23T04:56:00;9.30;99.90
19168;DHT22;9716;53.114;18.040;2024-03-23T04:58:29;9.30;99.90
19168;DHT22;9716;53.114;18.040;2024-03-23T05:00:57;9.30;99.90
19168;DHT22;9716;53.114;18.040;2024-03-23T05:03:24;9.30;99.90
19168;DHT22;9716;53.114;18.040;2024-03-23T05:05:52;9.30;99.90
19168;DHT22;9716;53.114;18.040;2024-03-23T05:08:19;9.30;99.90
19168;DHT22;9716;53.114;18.040;2024-03-23T05:10:46;9.30;99.90
19168;DHT22;9716;53.114;18.040;2024-03-23T05:13:13;9.30;99.90
19168;DHT22;9716;53.114;18.040;2024-03-23T05:15:42;9.30;99.90
19168;DHT22;9716;53.114;18.040;2024-03-23T05:18:09;9.30;99.90
19168;DHT22;9716;53.114;18.040;2024-03-23T05:20:36;9.30;99.90
19168;DHT22;9716;53.114;18.040;2024-03-23T05:23:04;9.30;99.90
19168;DHT22;9716;53.114;18.040;2024-03-23T05:25:31;9.30;99.90
19168;DHT22;9716;53.114;18.040;2024-03-23T05:27:58;9.30;99.90
19168;DHT22;9716;53.114;18.040;2024-03-23T05:30:25;9.40;99.90
19168;DHT22;9716;53.114;18.040;2024-03-23T05:32:54;9.40;99.90
19168;DHT22;9716;53.114;18.040;2024-03-23T05:35:21;9.40;99.90
19168;DHT22;9716;53.114;18.040;2024-03-23T05:37:49;9.50;99.90
19168;DHT22;9716;53.114;18.040;2024-03-23T05:40:16;9.50;99.90
19168;DHT22;9716;53.114;18.040;2024-03-23T05:42:44;9.40;99.90
19168;DHT22;9716;53.114;18.040;2024-03-23T05:45:30;9.40;99.90
19168;DHT22;9716;53.114;18.040;2024-03-23T05:47:58;9.40;99.90
19168;DHT22;9716;53.114;18.040;2024-03-23T05:50:26;9.50;99.90
19168;DHT22;9716;53.114;18.040;2024-03-23T05:52:53;9.50;99.90
19168;DHT22;9716;53.114;18.040;2024-03-23T05:55:21;9.40;99.90
19168;DHT22;9716;53.114;18.040;2024-03-23T05:57:47;9.40;99.90
19168;DHT22;9716;53.114;18.040;2024-03-23T06:00:16;9.40;99.90
19168;DHT22;9716;53.114;18.040;2024-03-23T06:02:42;9.40;99.90
19168;DHT22;9716;53.114;18.040;2024-03-23T06:05:13;9.40;99.90
19168;DHT22;9716;53.114;18.040;2024-03-23T06:07:43;9.50;99.90
19168;DHT22;9716;53.114;18.040;2024-03-23T06:10:11;9.60;99.90
19168;DHT22;9716;53.114;18.040;2024-03-23T06:12:37;9.60;99.90
19168;DHT22;9716;53.114;18.040;2024-03-23T06:15:06;9.80;99.90
19168;DHT22;9716;53.114;18.040;2024-03-23T06:17:36;9.70;99.90
19168;DHT22;9716;53.114;18.040;2024-03-23T06:20:06;9.80;99.90
19168;DHT22;9716;53.114;18.040;2024-03-23T06:22:34;9.80;99.90
19168;DHT22;9716;53.114;18.040;2024-03-23T06:25:02;9.70;99.90
19168;DHT22;9716;53.114;18.040;2024-03-23T06:27:29;9.70;99.90
19168;DHT22;9716;53.114;18.040;2024-03-23T06:29:58;9.70;99.90
19168;DHT22;9716;53.114;18.040;2024-03-23T06:32:26;9.70;99.90
19168;DHT22;9716;53.114;18.040;2024-03-23T06:34:54;9.70;99.90
19168;DHT22;9716;53.114;18.040;2024-03-23T06:37:21;9.70;99.90
19168;DHT22;9716;53.114;18.040;2024-03-23T06:39:52;9.60;99.90
19168;DHT22;9716;53.114;18.040;2024-03-23T06:42:19;9.60;99.90
19168;DHT22;9716;53.114;18.040;2024-03-23T06:44:47;9.60;99.90
19168;DHT22;9716;53.114;18.040;2024-03-23T06:47:13;9.60;99.90
19168;DHT22;9716;53.114;18.040;2024-03-23T06:49:41;9.60;99.90
19168;DHT22;9716;53.114;18.040;2024-03-23T06:52:12;9.60;99.90
19168;DHT22;9716;53.114;18.040;2024-03-23T06:54:40;9.60;99.90
19168;DHT22;9716;53.114;18.040;2024-03-23T06:57:08;9.60;99.90
19168;DHT22;9716;53.114;18.040;2024-03-23T06:59:36;9.60;99.90
19168;DHT22;9716;53.114;18.040;2024-03-23T07:02:03;9.60;99.90
19168;DHT22;9716;53.114;18.040;2024-03-23T07:04:31;9.60;99.90
19168;DHT22;9716;53.114;18.040;2024-03-23T07:06:58;9.60;99.90
19168;DHT22;9716;53.114;18.040;2024-03-23T07:09:27;9.60;99.90
19168;DHT22;9716;53.114;18.040;2024-03-23T07:11:54;9.60;99.90
19168;DHT22;9716;53.114;18.040;2024-03-23T07:14:24;9.50;99.90
19168;DHT22;9716;53.114;18.040;2024-03-23T07:16:51;9.50;99.90
19168;DHT22;9716;53.114;18.040;2024-03-23T07:19:20;9.50;99.90
19168;DHT22;9716;53.114;18.040;2024-03-23T07:21:46;9.50;99.90
19168;DHT22;9716;53.114;18.040;2024-03-23T07:24:15;9.50;99.90
19168;DHT22;9716;53.114;18.040;2024-03-23T07:26:43;9.50;99.90
19168;DHT22;9716;53.114;18.040;2024-03-23T07:29:10;9.60;99.90
19168;DHT22;9716;53.114;18.040;2024-03-23T07:31:39;9.60;99.90
19168;DHT22;9716;53.114;18.040;2024-03-23T07:34:08;9.60;99.90
19168;DHT22;9716;53.114;18.040;2024-03-23T07:36:35;9.60;99.90
19168;DHT22;9716;53.114;18.040;2024-03-23T07:39:02;9.60;99.90
19168;DHT22;9716;53.114;18.040;2024-03-23T07:41:30;9.40;99.90
19168;DHT22;9716;53.114;18.040;2024-03-23T07:43:57;9.60;99.90
19168;DHT22;9716;53.114;18.040;2024-03-23T07:46:25;9.60;99.90
19168;DHT22;9716;53.114;18.040;2024-03-23T07:48:54;9.50;99.90
19168;DHT22;9716;53.114;18.040;2024-03-23T07:51:35;9.50;99.90
19168;DHT22;9716;53.114;18.040;2024-03-23T07:54:05;9.50;99.90
19168;DHT22;9716;53.114;18.040;2024-03-23T07:56:33;9.50;99.90
19168;DHT22;9716;53.114;18.040;2024-03-23T07:59:01;9.50;99.90
19168;DHT22;9716;53.114;18.040;2024-03-23T08:01:29;9.40;99.90
19168;DHT22;9716;53.114;18.040;2024-03-23T08:03:59;9.40;99.90
19168;DHT22;9716;53.114;18.040;2024-03-23T08:06:26;9.30;99.90
19168;DHT22;9716;53.114;18.040;2024-03-23T08:08:55;9.30;99.90
19168;DHT22;9716;53.114;18.040;2024-03-23T08:11:26;9.20;99.90
19168;DHT22;9716;53.114;18.040;2024-03-23T08:13:55;9.20;99.90
19168;DHT22;9716;53.114;18.040;2024-03-23T08:16:23;9.20;99.90
19168;DHT22;9716;53.114;18.040;2024-03-23T08:18:59;9.20;99.90
19168;DHT22;9716;53.114;18.040;2024-03-23T08:21:28;9.30;99.90
19168;DHT22;9716;53.114;18.040;2024-03-23T08:24:02;9.30;99.90
19168;DHT22;9716;53.114;18.040;2024-03-23T08:26:31;9.30;99.90
19168;DHT22;9716;53.114;18.040;2024-03-23T08:28:59;9.40;99.90
19168;DHT22;9716;53.114;18.040;2024-03-23T08:31:26;9.40;99.90
19168;DHT22;9716;53.114;18.040;2024-03-23T08:33:54;9.40;99.90
19168;DHT22;9716;53.114;18.040;2024-03-23T08:36:22;9.50;99.90
19168;DHT22;9716;53.114;18.040;2024-03-23T08:38:50;9.50;99.90
19168;DHT22;9716;53.114;18.040;2024-03-23T08:41:20;9.50;99.90
19168;DHT22;9716;53.114;18.040;2024-03-23T08:43:48;9.40;99.90
19168;DHT22;9716;53.114;18.040;2024-03-23T08:46:15;9.40;99.90
19168;DHT22;9716;53.114;18.040;2024-03-23T08:48:45;9.40;99.90
19168;DHT22;9716;53.114;18.040;2024-03-23T08:51:35;9.40;99.90
19168;DHT22;9716;53.114;18.040;2024-03-23T08:54:16;9.40;99.90
19168;DHT22;9716;53.114;18.040;2024-03-23T08:56:46;9.30;99.90
19168;DHT22;9716;53.114;18.040;2024-03-23T08:59:13;9.30;99.90
19168;DHT22;9716;53.114;18.040;2024-03-23T09:01:41;9.30;99.90
19168;DHT22;9716;53.114;18.040;2024-03-23T09:04:08;9.30;99.90
19168;DHT22;9716;53.114;18.040;2024-03-23T09:06:37;9.20;99.90
19168;DHT22;9716;53.114;18.040;2024-03-23T09:09:05;9.20;99.90
19168;DHT22;9716;53.114;18.040;2024-03-23T09:11:32;9.20;99.90
19168;DHT22;9716;53.114;18.040;2024-03-23T09:13:59;9.10;99.90
19168;DHT22;9716;53.114;18.040;2024-03-23T09:16:30;9.00;99.90
19168;DHT22;9716;53.114;18.040;2024-03-23T09:18:57;9.00;99.90
19168;DHT22;9716;53.114;18.040;2024-03-23T09:21:24;8.90;99.90
19168;DHT22;9716;53.114;18.040;2024-03-23T09:23:53;8.90;99.90
19168;DHT22;9716;53.114;18.040;2024-03-23T09:26:21;8.90;99.90
19168;DHT22;9716;53.114;18.040;2024-03-23T09:28:49;8.90;99.90
19168;DHT22;9716;53.114;18.040;2024-03-23T09:31:16;8.80;99.90
19168;DHT22;9716;53.114;18.040;2024-03-23T09:36:46;8.60;99.90
19168;DHT22;9716;53.114;18.040;2024-03-23T09:39:15;8.60;99.90
19168;DHT22;9716;53.114;18.040;2024-03-23T09:41:42;8.50;99.90
19168;DHT22;9716;53.114;18.040;2024-03-23T09:44:10;8.50;99.90
19168;DHT22;9716;53.114;18.040;2024-03-23T09:46:37;8.50;99.90
19168;DHT22;9716;53.114;18.040;2024-03-23T09:49:07;8.50;99.90
19168;DHT22;9716;53.114;18.040;2024-03-23T09:51:53;8.60;99.90
19168;DHT22;9716;53.114;18.040;2024-03-23T09:54:43;8.60;99.90
19168;DHT22;9716;53.114;18.040;2024-03-23T09:57:10;8.70;99.90
19168;DHT22;9716;53.114;18.040;2024-03-23T09:59:38;8.80;99.90
19168;DHT22;9716;53.114;18.040;2024-03-23T10:02:06;8.90;99.90
19168;DHT22;9716;53.114;18.040;2024-03-23T10:04:36;9.00;99.90
19168;DHT22;9716;53.114;18.040;2024-03-23T10:07:11;9.00;99.90
19168;DHT22;9716;53.114;18.040;2024-03-23T10:09:39;9.10;99.90
19168;DHT22;9716;53.114;18.040;2024-03-23T10:12:11;9.10;99.90
19168;DHT22;9716;53.114;18.040;2024-03-23T10:14:43;9.10;99.90
19168;DHT22;9716;53.114;18.040;2024-03-23T10:17:12;9.10;99.90
19168;DHT22;9716;53.114;18.040;2024-03-23T10:19:41;9.00;99.90
19168;DHT22;9716;53.114;18.040;2024-03-23T10:22:13;8.80;99.90
19168;DHT22;9716;53.114;18.040;2024-03-23T10:24:42;8.70;99.90
19168;DHT22;9716;53.114;18.040;2024-03-23T10:27:08;8.60;99.90
19168;DHT22;9716;53.114;18.040;2024-03-23T10:29:38;8.50;99.90
19168;DHT22;9716;53.114;18.040;2024-03-23T10:32:09;8.50;99.90
19168;DHT22;9716;53.114;18.040;2024-03-23T10:34:37;8.40;99.90
19168;DHT22;9716;53.114;18.040;2024-03-23T10:37:09;8.30;99.90
19168;DHT22;9716;53.114;18.040;2024-03-23T10:39:39;8.30;99.90
19168;DHT22;9716;53.114;18.040;2024-03-23T10:42:09;8.30;99.90
19168;DHT22;9716;53.114;18.040;2024-03-23T10:44:39;8.40;99.90
19168;DHT22;9716;53.114;18.040;2024-03-23T10:47:05;8.40;99.90
19168;DHT22;9716;53.114;18.040;2024-03-23T10:49:35;8.50;99.90
19168;DHT22;9716;53.114;18.040;2024-03-23T10:52:03;8.50;99.90
19168;DHT22;9716;53.114;18.040;2024-03-23T10:54:32;8.60;99.90
19168;DHT22;9716;53.114;18.040;2024-03-23T10:57:03;8.60;99.90
19168;DHT22;9716;53.114;18.040;2024-03-23T10:59:33;8.60;99.90
19168;DHT22;9716;53.114;18.040;2024-03-23T11:02:02;8.70;99.90
19168;DHT22;9716;53.114;18.040;2024-03-23T11:04:31;8.80;99.90
19168;DHT22;9716;53.114;18.040;2024-03-23T11:07:28;8.90;99.90
19168;DHT22;9716;53.114;18.040;2024-03-23T11:09:57;9.00;99.90
19168;DHT22;9716;53.114;18.040;2024-03-23T11:12:31;9.10;99.90
19168;DHT22;9716;53.114;18.040;2024-03-23T11:15:01;9.20;99.90
19168;DHT22;9716;53.114;18.040;2024-03-23T11:17:30;9.40;99.90
19168;DHT22;9716;53.114;18.040;2024-03-23T11:22:49;9.70;99.90
19168;DHT22;9716;53.114;18.040;2024-03-23T11:25:20;9.80;99.90
19168;DHT22;9716;53.114;18.040;2024-03-23T11:27:48;9.80;99.90
19168;DHT22;9716;53.114;18.040;2024-03-23T11:30:17;9.80;99.90
19168;DHT22;9716;53.114;18.040;2024-03-23T11:32:47;9.90;99.90
19168;DHT22;9716;53.114;18.040;2024-03-23T11:35:28;9.90;99.90
19168;DHT22;9716;53.114;18.040;2024-03-23T11:38:19;9.90;99.90
19168;DHT22;9716;53.114;18.040;2024-03-23T11:40:50;9.90;99.90
19168;DHT22;9716;53.114;18.040;2024-03-23T11:43:18;9.80;99.90
19168;DHT22;9716;53.114;18.040;2024-03-23T11:45:47;9.80;99.90
19168;DHT22;9716;53.114;18.040;2024-03-23T11:48:17;9.80;99.90
19168;DHT22;9716;53.114;18.040;2024-03-23T11:50:49;9.70;99.90
19168;DHT22;9716;53.114;18.040;2024-03-23T11:53:17;9.70;99.90
19168;DHT22;9716;53.114;18.040;2024-03-23T11:55:52;9.70;99.90
19168;DHT22;9716;53.114;18.040;2024-03-23T11:58:22;9.70;99.90
19168;DHT22;9716;53.114;18.040;2024-03-23T12:00:52;9.60;99.90
19168;DHT22;9716;53.114;18.040;2024-03-23T12:03:21;9.50;99.90
19168;DHT22;9716;53.114;18.040;2024-03-23T12:06:08;9.40;99.90
19168;DHT22;9716;53.114;18.040;2024-03-23T12:09:17;9.30;99.90
19168;DHT22;9716;53.114;18.040;2024-03-23T12:11:55;9.30;99.90
19168;DHT22;9716;53.114;18.040;2024-03-23T12:14:22;9.20;99.90
19168;DHT22;9716;53.114;18.040;2024-03-23T12:16:50;9.20;99.90
19168;DHT22;9716;53.114;18.040;2024-03-23T12:19:19;9.30;99.90
19168;DHT22;9716;53.114;18.040;2024-03-23T12:21:52;9.30;99.90
19168;DHT22;9716;53.114;18.040;2024-03-23T12:24:21;9.30;99.90
19168;DHT22;9716;53.114;18.040;2024-03-23T12:26:49;9.30;99.90
19168;DHT22;9716;53.114;18.040;2024-03-23T12:29:45;9.20;99.90
19168;DHT22;9716;53.114;18.040;2024-03-23T12:32:14;9.20;99.90
19168;DHT22;9716;53.114;18.040;2024-03-23T12:34:44;9.20;99.90
19168;DHT22;9716;53.114;18.040;2024-03-23T12:37:11;9.20;99.90
19168;DHT22;9716;53.114;18.040;2024-03-23T12:39:39;9.20;99.90
19168;DHT22;9716;53.114;18.040;2024-03-23T12:42:06;9.10;99.90
19168;DHT22;9716;53.114;18.040;2024-03-23T12:44:34;9.10;99.90
19168;DHT22;9716;53.114;18.040;2024-03-23T12:47:23;9.00;99.90
19168;DHT22;9716;53.114;18.040;2024-03-23T12:49:52;9.00;99.90
19168;DHT22;9716;53.114;18.040;2024-03-23T12:52:34;8.90;99.90
19168;DHT22;9716;53.114;18.040;2024-03-23T12:55:02;8.80;99.90
19168;DHT22;9716;53.114;18.040;2024-03-23T12:57:29;8.80;99.90
19168;DHT22;9716;53.114;18.040;2024-03-23T12:59:58;8.80;99.90
19168;DHT22;9716;53.114;18.040;2024-03-23T13:02:24;8.70;99.90
19168;DHT22;9716;53.114;18.040;2024-03-23T13:05:17;8.70;99.90
19168;DHT22;9716;53.114;18.040;2024-03-23T13:07:50;8.60;99.90
19168;DHT22;9716;53.114;18.040;2024-03-23T13:10:18;8.60;99.90
19168;DHT22;9716;53.114;18.040;2024-03-23T13:12:48;8.60;99.90
19168;DHT22;9716;53.114;18.040;2024-03-23T13:15:16;8.50;99.90
19168;DHT22;9716;53.114;18.040;2024-03-23T13:17:46;8.50;99.90
19168;DHT22;9716;53.114;18.040;2024-03-23T13:20:13;8.40;99.90
19168;DHT22;9716;53.114;18.040;2024-03-23T13:22:42;8.40;99.90
19168;DHT22;9716;53.114;18.040;2024-03-23T13:25:14;8.40;99.90
19168;DHT22;9716;53.114;18.040;2024-03-23T13:27:42;8.30;99.90
19168;DHT22;9716;53.114;18.040;2024-03-23T13:30:11;8.20;99.90
19168;DHT22;9716;53.114;18.040;2024-03-23T13:32:39;8.20;99.90
19168;DHT22;9716;53.114;18.040;2024-03-23T13:35:07;8.20;99.90
19168;DHT22;9716;53.114;18.040;2024-03-23T13:37:34;8.10;99.90
19168;DHT22;9716;53.114;18.040;2024-03-23T13:40:03;8.10;99.90
19168;DHT22;9716;53.114;18.040;2024-03-23T13:42:52;8.00;99.90
19168;DHT22;9716;53.114;18.040;2024-03-23T13:45:36;8.00;99.90
19168;DHT22;9716;53.114;18.040;2024-03-23T13:48:05;8.00;99.90
19168;DHT22;9716;53.114;18.040;2024-03-23T13:50:32;8.00;99.90
19168;DHT22;9716;53.114;18.040;2024-03-23T13:53:00;8.00;99.90
19168;DHT22;9716;53.114;18.040;2024-03-23T13:55:28;8.00;99.90
19168;DHT22;9716;53.114;18.040;2024-03-23T13:57:56;7.90;99.90
19168;DHT22;9716;53.114;18.040;2024-03-23T14:00:23;7.90;99.90
19168;DHT22;9716;53.114;18.040;2024-03-23T14:02:56;7.80;99.90
19168;DHT22;9716;53.114;18.040;2024-03-23T14:05:23;7.80;99.90
19168;DHT22;9716;53.114;18.040;2024-03-23T14:07:52;7.70;99.90
19168;DHT22;9716;53.114;18.040;2024-03-23T14:10:19;7.70;99.90
19168;DHT22;9716;53.114;18.040;2024-03-23T14:12:48;7.70;99.90
19168;DHT22;9716;53.114;18.040;2024-03-23T14:15:18;7.60;99.90
19168;DHT22;9716;53.114;18.040;2024-03-23T14:17:46;7.60;99.90
19168;DHT22;9716;53.114;18.040;2024-03-23T14:20:13;7.60;99.90
19168;DHT22;9716;53.114;18.040;2024-03-23T14:22:57;7.60;99.90
19168;DHT22;9716;53.114;18.040;2024-03-23T14:25:39;7.50;99.90
19168;DHT22;9716;53.114;18.040;2024-03-23T14:28:08;7.50;99.90
19168;DHT22;9716;53.114;18.040;2024-03-23T14:30:42;7.50;99.90
19168;DHT22;9716;53.114;18.040;2024-03-23T14:33:40;7.50;99.90
19168;DHT22;9716;53.114;18.040;2024-03-23T14:36:21;7.50;99.90
19168;DHT22;9716;53.114;18.040;2024-03-23T14:39:06;7.50;99.90
19168;DHT22;9716;53.114;18.040;2024-03-23T14:41:33;7.50;99.90
19168;DHT22;9716;53.114;18.040;2024-03-23T14:44:14;7.50;99.90
19168;DHT22;9716;53.114;18.040;2024-03-23T14:46:56;7.40;99.90
19168;DHT22;9716;53.114;18.040;2024-03-23T14:49:27;7.40;99.90
19168;DHT22;9716;53.114;18.040;2024-03-23T14:51:57;7.40;99.90
19168;DHT22;9716;53.114;18.040;2024-03-23T14:54:39;7.30;99.90
19168;DHT22;9716;53.114;18.040;2024-03-23T14:57:16;7.30;99.90
19168;DHT22;9716;53.114;18.040;2024-03-23T14:59:46;7.30;99.90
19168;DHT22;9716;53.114;18.040;2024-03-23T15:02:33;7.30;99.90
19168;DHT22;9716;53.114;18.040;2024-03-23T15:05:15;7.20;99.90
19168;DHT22;9716;53.114;18.040;2024-03-23T15:08:13;7.30;99.90
19168;DHT22;9716;53.114;18.040;2024-03-23T15:14:52;7.30;99.90
19168;DHT22;9716;53.114;18.040;2024-03-23T15:18:00;7.20;99.90
19168;DHT22;9716;53.114;18.040;2024-03-23T15:20:59;7.20;99.90
19168;DHT22;9716;53.114;18.040;2024-03-23T15:23:57;7.10;99.90
19168;DHT22;9716;53.114;18.040;2024-03-23T15:26:52;7.10;99.90
19168;DHT22;9716;53.114;18.040;2024-03-23T15:43:29;7.00;99.90
19168;DHT22;9716;53.114;18.040;2024-03-23T15:46:12;7.00;99.90
19168;DHT22;9716;53.114;18.040;2024-03-23T15:48:40;7.00;99.90
19168;DHT22;9716;53.114;18.040;2024-03-23T15:51:13;7.00;99.90
19168;DHT22;9716;53.114;18.040;2024-03-23T15:53:41;7.00;99.90
19168;DHT22;9716;53.114;18.040;2024-03-23T15:56:09;7.00;99.90
19168;DHT22;9716;53.114;18.040;2024-03-23T15:58:38;7.00;99.90
19168;DHT22;9716;53.114;18.040;2024-03-23T16:01:06;6.90;99.90
19168;DHT22;9716;53.114;18.040;2024-03-23T16:03:35;6.90;99.90
19168;DHT22;9716;53.114;18.040;2024-03-23T16:06:03;6.90;99.90
19168;DHT22;9716;53.114;18.040;2024-03-23T16:08:31;6.90;99.90
19168;DHT22;9716;53.114;18.040;2024-03-23T16:11:00;6.90;99.90
19168;DHT22;9716;53.114;18.040;2024-03-23T16:13:28;6.90;99.90
19168;DHT22;9716;53.114;18.040;2024-03-23T16:15:58;6.90;99.90
19168;DHT22;9716;53.114;18.040;2024-03-23T16:18:26;6.90;99.90
19168;DHT22;9716;53.114;18.040;2024-03-23T16:20:54;7.00;99.90
19168;DHT22;9716;53.114;18.040;2024-03-23T16:23:22;7.00;99.90
19168;DHT22;9716;53.114;18.040;2024-03-23T16:25:52;7.00;99.90
19168;DHT22;9716;53.114;18.040;2024-03-23T16:28:24;7.00;99.90
19168;DHT22;9716;53.114;18.040;2024-03-23T16:30:57;7.00;99.90
19168;DHT22;9716;53.114;18.040;2024-03-23T16:33:25;6.90;99.90
19168;DHT22;9716;53.114;18.040;2024-03-23T16:35:59;6.90;99.90
19168;DHT22;9716;53.114;18.040;2024-03-23T16:38:28;6.90;99.90
19168;DHT22;9716;53.114;18.040;2024-03-23T16:40:57;6.90;99.90
19168;DHT22;9716;53.114;18.040;2024-03-23T16:43:27;6.90;99.90
19168;DHT22;9716;53.114;18.040;2024-03-23T16:45:57;6.90;99.90
19168;DHT22;9716;53.114;18.040;2024-03-23T16:48:26;6.90;99.90
19168;DHT22;9716;53.114;18.040;2024-03-23T16:50:56;6.90;99.90
19168;DHT22;9716;53.114;18.040;2024-03-23T16:53:24;7.00;99.90
19168;DHT22;9716;53.114;18.040;2024-03-23T16:55:55;6.90;99.90
19168;DHT22;9716;53.114;18.040;2024-03-23T16:58:24;6.90;99.90
19168;DHT22;9716;53.114;18.040;2024-03-23T17:00:53;6.80;99.90
19168;DHT22;9716;53.114;18.040;2024-03-23T17:03:24;6.70;99.90
19168;DHT22;9716;53.114;18.040;2024-03-23T17:05:51;6.60;99.90
19168;DHT22;9716;53.114;18.040;2024-03-23T17:08:20;6.60;99.90
19168;DHT22;9716;53.114;18.040;2024-03-23T17:10:47;6.50;99.90
19168;DHT22;9716;53.114;18.040;2024-03-23T17:13:17;6.50;99.90
19168;DHT22;9716;53.114;18.040;2024-03-23T17:15:43;6.40;99.90
19168;DHT22;9716;53.114;18.040;2024-03-23T17:18:11;6.30;99.90
19168;DHT22;9716;53.114;18.040;2024-03-23T17:20:40;6.20;99.90